createdAt,value
2018-11-01T00:00:53.711Z,0.00
2018-11-01T00:01:53.294Z,0.00
2018-11-01T00:02:53.302Z,0.00
2018-11-01T00:03:53.305Z,0.00
2018-11-01T00:04:53.333Z,0.00
2018-11-01T00:05:53.367Z,0.00
2018-11-01T00:06:53.330Z,0.00
2018-11-01T00:07:53.329Z,0.00
2018-11-01T00:08:53.340Z,0.00
2018-11-01T00:09:53.359Z,0.00
2018-11-01T00:10:53.347Z,0.00
2018-11-01T00:11:53.355Z,0.00
2018-11-01T00:12:53.391Z,0.00
2018-11-01T00:13:53.368Z,0.00
2018-11-01T00:14:53.394Z,0.00
2018-11-01T00:15:53.377Z,0.00
2018-11-01T00:16:53.380Z,0.00
2018-11-01T00:17:53.413Z,0.00
2018-11-01T00:18:53.385Z,0.00
2018-11-01T00:19:53.401Z,0.00
2018-11-01T00:20:54.145Z,0.00
2018-11-01T00:21:53.419Z,0.00
2018-11-01T00:22:54.040Z,0.00
2018-11-01T00:23:53.438Z,0.00
2018-11-01T00:24:53.543Z,0.00
2018-11-01T00:25:53.425Z,0.00
2018-11-01T00:26:53.438Z,0.00
2018-11-01T00:27:53.472Z,0.00
2018-11-01T00:28:53.442Z,0.00
2018-11-01T00:29:53.447Z,0.00
2018-11-01T00:30:53.478Z,0.00
2018-11-01T00:31:53.498Z,0.00
2018-11-01T00:32:53.464Z,0.00
2018-11-01T00:33:53.471Z,0.00
2018-11-01T00:34:53.492Z,0.00
2018-11-01T00:35:53.479Z,0.00
2018-11-01T00:36:53.503Z,0.00
2018-11-01T00:37:53.497Z,0.00
2018-11-01T00:38:53.501Z,0.00
2018-11-01T00:39:53.525Z,0.00
2018-11-01T00:40:53.512Z,0.00
2018-11-01T00:41:53.506Z,0.00
2018-11-01T00:42:53.538Z,0.00
2018-11-01T00:43:53.553Z,0.00
2018-11-01T00:44:53.542Z,0.00
2018-11-01T00:45:53.561Z,0.00
2018-11-01T00:46:53.539Z,0.00
2018-11-01T00:47:53.544Z,0.00
2018-11-01T00:48:53.542Z,0.00
2018-11-01T00:49:53.546Z,0.00
2018-11-01T00:50:53.549Z,0.00
2018-11-01T00:51:53.606Z,0.00
2018-11-01T00:52:53.595Z,0.00
2018-11-01T00:53:53.574Z,0.00
2018-11-01T00:54:53.661Z,0.00
2018-11-01T00:55:53.586Z,0.00
2018-11-01T00:56:53.580Z,0.00
2018-11-01T00:57:53.592Z,0.00
2018-11-01T00:58:53.649Z,0.00
2018-11-01T00:59:53.632Z,0.00
2018-11-01T01:00:53.620Z,0.00
2018-11-01T01:01:53.618Z,0.00
2018-11-01T01:02:53.639Z,0.00
2018-11-01T01:03:53.677Z,0.00
2018-11-01T01:04:53.630Z,0.00
2018-11-01T01:05:53.643Z,0.00
2018-11-01T01:06:53.653Z,0.00
2018-11-01T01:07:53.649Z,0.00
2018-11-01T01:08:53.665Z,0.00
2018-11-01T01:09:53.678Z,0.00
2018-11-01T01:10:53.665Z,0.00
2018-11-01T01:11:53.669Z,0.00
2018-11-01T01:16:13.192Z,0.00
2018-11-01T01:17:13.170Z,0.00
2018-11-01T01:18:13.170Z,0.00
2018-11-01T01:19:13.171Z,0.00
2018-11-01T01:20:13.205Z,0.00
2018-11-01T01:21:13.218Z,0.00
2018-11-01T01:22:13.220Z,0.00
2018-11-01T01:23:13.192Z,0.00
2018-11-01T01:24:13.205Z,0.00
2018-11-01T01:25:13.226Z,0.00
2018-11-01T01:26:13.242Z,0.00
2018-11-01T01:27:13.229Z,0.00
2018-11-01T01:28:13.226Z,0.00
2018-11-01T01:29:13.225Z,0.00
2018-11-01T01:30:13.238Z,0.00
2018-11-01T01:31:13.257Z,0.00
2018-11-01T01:32:13.240Z,0.00
2018-11-01T01:33:13.262Z,0.00
2018-11-01T01:34:13.730Z,0.00
2018-11-01T01:35:13.252Z,0.00
2018-11-01T01:36:13.279Z,0.00
2018-11-01T01:37:13.297Z,0.00
2018-11-01T01:38:13.268Z,0.00
2018-11-01T01:39:13.269Z,0.00
2018-11-01T01:40:13.298Z,0.00
2018-11-01T01:41:13.345Z,0.00
2018-11-01T01:42:13.313Z,0.00
2018-11-01T01:43:13.293Z,0.00
2018-11-01T01:44:13.304Z,0.00
2018-11-01T01:45:13.314Z,0.00
2018-11-01T01:46:13.366Z,0.00
2018-11-01T01:47:13.732Z,0.00
2018-11-01T01:48:13.364Z,0.00
2018-11-01T01:49:13.337Z,0.00
2018-11-01T01:50:13.382Z,0.00
2018-11-01T01:51:13.339Z,0.00
2018-11-01T01:52:13.344Z,0.00
2018-11-01T01:53:13.407Z,0.00
2018-11-01T01:54:13.351Z,0.00
2018-11-01T01:55:13.400Z,0.00
2018-11-01T01:56:13.379Z,0.00
2018-11-01T01:57:13.358Z,0.00
2018-11-01T01:58:13.410Z,0.00
2018-11-01T01:59:13.381Z,0.00
2018-11-01T02:00:13.381Z,0.00
2018-11-01T02:01:13.404Z,0.00
2018-11-01T02:02:13.398Z,0.00
2018-11-01T02:03:13.433Z,0.00
2018-11-01T02:04:13.395Z,0.00
2018-11-01T02:05:13.401Z,0.00
2018-11-01T02:06:13.434Z,0.00
2018-11-01T02:07:13.414Z,0.00
2018-11-01T02:08:13.418Z,0.00
2018-11-01T02:09:13.453Z,0.00
2018-11-01T02:10:13.442Z,0.00
2018-11-01T02:11:13.463Z,0.00
2018-11-01T02:12:13.436Z,0.00
2018-11-01T02:13:13.443Z,0.00
2018-11-01T02:14:13.445Z,0.00
2018-11-01T02:15:13.458Z,0.00
2018-11-01T02:16:13.481Z,0.00
2018-11-01T02:17:13.490Z,0.00
2018-11-01T02:18:13.493Z,0.00
2018-11-01T02:19:13.507Z,0.00
2018-11-01T02:20:13.497Z,0.00
2018-11-01T02:21:13.491Z,0.00
2018-11-01T02:22:13.500Z,0.00
2018-11-01T02:23:13.512Z,0.00
2018-11-01T02:24:13.498Z,0.00
2018-11-01T02:25:13.518Z,0.00
2018-11-01T02:26:13.516Z,0.00
2018-11-01T02:27:13.522Z,0.00
2018-11-01T02:28:13.566Z,0.00
2018-11-01T02:29:13.558Z,0.00
2018-11-01T02:30:13.638Z,0.00
2018-11-01T02:31:13.530Z,0.00
2018-11-01T02:32:13.570Z,0.00
2018-11-01T02:33:13.544Z,0.00
2018-11-01T02:34:13.575Z,0.00
2018-11-01T02:35:13.575Z,0.00
2018-11-01T02:36:13.560Z,0.00
2018-11-01T02:37:13.565Z,0.00
2018-11-01T02:38:13.660Z,0.00
2018-11-01T02:39:13.596Z,0.00
2018-11-01T02:40:13.599Z,0.00
2018-11-01T02:41:13.583Z,0.00
2018-11-01T02:42:13.583Z,0.00
2018-11-01T02:43:13.597Z,0.00
2018-11-01T02:44:13.615Z,0.00
2018-11-01T02:45:13.668Z,0.00
2018-11-01T02:46:13.613Z,0.00
2018-11-01T02:47:13.611Z,0.00
2018-11-01T02:48:13.635Z,0.00
2018-11-01T02:49:13.647Z,0.00
2018-11-01T02:50:13.629Z,0.00
2018-11-01T02:51:13.658Z,0.00
2018-11-01T02:52:13.647Z,0.00
2018-11-01T02:53:13.641Z,0.00
2018-11-01T02:54:13.678Z,0.00
2018-11-01T02:55:13.653Z,0.00
2018-11-01T02:56:13.678Z,0.00
2018-11-01T02:57:13.688Z,0.00
2018-11-01T02:58:13.667Z,0.00
2018-11-01T02:59:13.700Z,0.00
2018-11-01T03:00:13.761Z,0.00
2018-11-01T03:01:13.692Z,0.00
2018-11-01T03:02:13.703Z,0.00
2018-11-01T03:03:13.710Z,0.00
2018-11-01T03:04:13.726Z,0.00
2018-11-01T03:05:13.700Z,0.00
2018-11-01T03:06:13.715Z,0.00
2018-11-01T03:07:13.720Z,0.00
2018-11-01T03:08:13.746Z,0.00
2018-11-01T03:09:13.738Z,0.00
2018-11-01T03:10:13.725Z,0.00
2018-11-01T03:11:13.730Z,0.00
2018-11-01T03:12:13.742Z,0.00
2018-11-01T03:13:13.741Z,0.00
2018-11-01T03:14:13.776Z,0.00
2018-11-01T03:15:13.770Z,0.00
2018-11-01T03:16:13.766Z,0.00
2018-11-01T03:17:13.850Z,0.00
2018-11-01T03:18:13.766Z,0.00
2018-11-01T03:19:13.791Z,0.00
2018-11-01T03:20:13.789Z,0.00
2018-11-01T03:21:13.776Z,0.00
2018-11-01T03:22:13.806Z,0.00
2018-11-01T03:23:13.787Z,0.00
2018-11-01T03:24:13.830Z,0.00
2018-11-01T03:25:13.812Z,0.00
2018-11-01T03:26:13.861Z,0.00
2018-11-01T03:27:13.805Z,0.00
2018-11-01T03:28:13.811Z,0.00
2018-11-01T03:29:13.844Z,0.00
2018-11-01T03:30:13.820Z,0.00
2018-11-01T03:31:13.871Z,0.00
2018-11-01T03:32:13.836Z,0.00
2018-11-01T03:33:13.846Z,0.00
2018-11-01T03:34:13.913Z,0.00
2018-11-01T03:35:13.934Z,0.00
2018-11-01T03:36:13.876Z,0.00
2018-11-01T03:37:13.853Z,0.00
2018-11-01T03:38:14.060Z,0.00
2018-11-01T03:39:13.872Z,0.00
2018-11-01T03:40:13.872Z,0.00
2018-11-01T03:41:13.902Z,0.00
2018-11-01T03:42:13.883Z,0.00
2018-11-01T03:43:13.953Z,0.00
2018-11-01T03:44:13.890Z,0.00
2018-11-01T03:45:13.911Z,0.00
2018-11-01T03:46:13.904Z,0.00
2018-11-01T03:47:13.906Z,0.00
2018-11-01T03:48:13.910Z,0.00
2018-11-01T03:49:13.932Z,0.00
2018-11-01T03:50:13.918Z,0.00
2018-11-01T03:51:13.922Z,0.00
2018-11-01T03:52:13.946Z,0.00
2018-11-01T03:53:13.992Z,0.00
2018-11-01T03:54:13.973Z,0.00
2018-11-01T03:55:13.949Z,0.00
2018-11-01T03:56:13.948Z,0.00
2018-11-01T03:57:13.954Z,0.00
2018-11-01T03:58:13.967Z,0.00
2018-11-01T03:59:13.978Z,0.00
2018-11-01T04:00:14.027Z,0.00
2018-11-01T04:01:13.971Z,0.00
2018-11-01T04:02:13.979Z,0.00
2018-11-01T04:03:14.007Z,0.00
2018-11-01T04:04:13.998Z,0.00
2018-11-01T04:05:13.996Z,0.00
2018-11-01T04:06:14.030Z,0.00
2018-11-01T04:07:14.016Z,0.00
2018-11-01T04:08:14.022Z,0.00
2018-11-01T04:09:14.019Z,0.00
2018-11-01T04:10:14.063Z,0.00
2018-11-01T04:11:14.019Z,0.00
2018-11-01T04:12:14.023Z,0.00
2018-11-01T04:13:14.033Z,0.00
2018-11-01T04:14:14.038Z,0.00
2018-11-01T04:15:14.125Z,0.00
2018-11-01T04:16:14.068Z,0.00
2018-11-01T04:17:14.077Z,0.00
2018-11-01T04:18:14.101Z,0.00
2018-11-01T04:19:14.061Z,0.00
2018-11-01T04:20:14.064Z,0.00
2018-11-01T04:21:14.076Z,0.00
2018-11-01T04:22:14.097Z,0.00
2018-11-01T04:23:14.103Z,0.00
2018-11-01T04:24:14.148Z,0.00
2018-11-01T04:25:14.095Z,0.00
2018-11-01T04:26:14.091Z,0.00
2018-11-01T04:27:14.094Z,0.00
2018-11-01T04:28:14.100Z,0.00
2018-11-01T04:29:14.111Z,0.00
2018-11-01T04:30:14.134Z,0.00
2018-11-01T04:31:14.136Z,0.00
2018-11-01T04:32:14.125Z,0.00
2018-11-01T04:33:14.169Z,0.00
2018-11-01T04:34:14.136Z,0.00
2018-11-01T04:35:14.179Z,0.00
2018-11-01T04:36:14.160Z,0.00
2018-11-01T04:37:14.146Z,0.00
2018-11-01T04:38:14.169Z,0.00
2018-11-01T04:39:14.155Z,0.00
2018-11-01T04:40:14.185Z,0.00
2018-11-01T04:41:14.167Z,0.00
2018-11-01T04:42:14.212Z,0.00
2018-11-01T04:43:14.234Z,0.00
2018-11-01T04:44:14.191Z,0.00
2018-11-01T04:45:14.214Z,0.00
2018-11-01T04:46:14.209Z,0.00
2018-11-01T04:47:14.237Z,0.00
2018-11-01T04:48:14.217Z,0.00
2018-11-01T04:49:14.224Z,0.00
2018-11-01T04:50:14.205Z,0.00
2018-11-01T04:51:14.212Z,0.00
2018-11-01T04:52:14.220Z,0.00
2018-11-01T04:53:14.243Z,0.00
2018-11-01T04:54:14.229Z,0.00
2018-11-01T04:55:14.243Z,0.00
2018-11-01T04:56:14.245Z,0.00
2018-11-01T04:57:14.237Z,0.00
2018-11-01T04:58:14.274Z,0.00
2018-11-01T04:59:14.255Z,0.00
2018-11-01T05:00:14.282Z,0.00
2018-11-01T05:01:14.258Z,0.00
2018-11-01T05:02:14.273Z,0.00
2018-11-01T05:03:14.317Z,0.00
2018-11-01T05:04:14.332Z,0.00
2018-11-01T05:05:14.417Z,0.00
2018-11-01T05:06:14.284Z,0.00
2018-11-01T05:07:14.293Z,0.00
2018-11-01T05:08:14.295Z,0.00
2018-11-01T05:09:14.300Z,0.00
2018-11-01T05:10:14.373Z,0.00
2018-11-01T05:11:14.312Z,0.00
2018-11-01T05:12:14.311Z,0.00
2018-11-01T05:13:14.329Z,0.00
2018-11-01T05:14:14.320Z,0.00
2018-11-01T05:15:14.418Z,0.00
2018-11-01T05:16:14.333Z,0.00
2018-11-01T05:17:14.339Z,0.00
2018-11-01T05:18:14.342Z,0.00
2018-11-01T05:19:14.342Z,0.00
2018-11-01T05:20:14.406Z,0.00
2018-11-01T05:21:14.392Z,0.00
2018-11-01T05:22:14.362Z,0.00
2018-11-01T05:23:14.367Z,0.00
2018-11-01T05:24:14.408Z,0.00
2018-11-01T05:25:14.374Z,0.00
2018-11-01T05:26:14.383Z,0.00
2018-11-01T05:27:14.401Z,0.00
2018-11-01T05:28:14.414Z,0.00
2018-11-01T05:29:14.446Z,0.00
2018-11-01T05:30:14.412Z,0.00
2018-11-01T05:31:14.407Z,4.00
2018-11-01T05:32:14.420Z,0.00
2018-11-01T05:33:14.511Z,0.00
2018-11-01T05:34:14.430Z,4.00
2018-11-01T05:35:14.441Z,4.00
2018-11-01T05:36:14.444Z,4.00
2018-11-01T05:37:14.434Z,4.00
2018-11-01T05:38:14.455Z,4.00
2018-11-01T05:39:14.459Z,4.00
2018-11-01T05:40:14.440Z,4.00
2018-11-01T05:41:14.453Z,8.00
2018-11-01T05:42:14.489Z,12.00
2018-11-01T05:43:14.464Z,12.00
2018-11-01T05:44:14.486Z,16.00
2018-11-01T05:45:14.509Z,20.00
2018-11-01T05:46:14.483Z,20.00
2018-11-01T05:47:14.476Z,24.00
2018-11-01T05:48:14.486Z,32.00
2018-11-01T05:49:14.507Z,32.00
2018-11-01T05:50:14.517Z,36.00
2018-11-01T05:51:14.503Z,40.00
2018-11-01T05:52:14.501Z,48.00
2018-11-01T05:53:14.511Z,52.00
2018-11-01T05:54:14.517Z,60.00
2018-11-01T05:55:14.562Z,68.00
2018-11-01T05:56:14.563Z,76.00
2018-11-01T05:57:14.529Z,84.00
2018-11-01T05:58:14.536Z,96.00
2018-11-01T05:59:14.538Z,104.00
2018-11-01T06:00:14.594Z,112.00
2018-11-01T06:01:14.558Z,120.00
2018-11-01T06:02:14.547Z,128.00
2018-11-01T06:03:14.662Z,136.00
2018-11-01T06:04:14.557Z,148.00
2018-11-01T06:05:14.607Z,160.00
2018-11-01T06:06:14.590Z,168.00
2018-11-01T06:07:14.569Z,180.00
2018-11-01T06:08:14.582Z,196.00
2018-11-01T06:09:14.595Z,212.00
2018-11-01T06:10:14.594Z,224.00
2018-11-01T06:11:14.626Z,236.00
2018-11-01T06:12:14.609Z,256.00
2018-11-01T06:13:14.600Z,272.00
2018-11-01T06:14:14.602Z,292.00
2018-11-01T06:15:14.665Z,308.00
2018-11-01T06:16:14.639Z,328.00
2018-11-01T06:17:14.679Z,340.00
2018-11-01T06:18:14.623Z,352.00
2018-11-01T06:19:14.635Z,372.00
2018-11-01T06:20:14.648Z,388.00
2018-11-01T06:21:14.661Z,404.00
2018-11-01T06:22:14.672Z,424.00
2018-11-01T06:23:14.648Z,448.00
2018-11-01T06:24:14.673Z,468.00
2018-11-01T06:25:14.684Z,488.00
2018-11-01T06:26:14.753Z,512.00
2018-11-01T06:27:14.686Z,536.00
2018-11-01T06:28:14.721Z,560.00
2018-11-01T06:29:14.680Z,584.00
2018-11-01T06:30:14.693Z,612.00
2018-11-01T06:31:14.693Z,644.00
2018-11-01T06:32:14.702Z,676.00
2018-11-01T06:33:14.728Z,704.00
2018-11-01T06:34:14.734Z,736.00
2018-11-01T06:35:14.728Z,768.00
2018-11-01T06:36:14.709Z,804.00
2018-11-01T06:37:14.721Z,832.00
2018-11-01T06:38:14.728Z,868.00
2018-11-01T06:39:14.798Z,900.00
2018-11-01T06:40:14.731Z,936.00
2018-11-01T06:41:14.734Z,984.00
2018-11-01T06:42:14.761Z,1024.00
2018-11-01T06:43:14.742Z,1060.00
2018-11-01T06:44:14.768Z,1100.00
2018-11-01T06:45:14.791Z,1132.00
2018-11-01T06:46:14.869Z,1176.00
2018-11-01T06:47:14.771Z,1224.00
2018-11-01T06:48:14.805Z,1268.00
2018-11-01T06:49:14.772Z,1300.00
2018-11-01T06:50:14.797Z,1328.00
2018-11-01T06:51:14.801Z,1332.00
2018-11-01T06:52:14.800Z,1332.00
2018-11-01T06:53:14.821Z,1320.00
2018-11-01T06:54:14.796Z,1324.00
2018-11-01T06:55:14.799Z,1332.00
2018-11-01T06:56:14.854Z,1368.00
2018-11-01T06:57:14.824Z,1416.00
2018-11-01T06:58:14.865Z,1476.00
2018-11-01T06:59:14.990Z,1552.00
2018-11-01T07:00:14.845Z,1640.00
2018-11-01T07:01:14.867Z,1708.00
2018-11-01T07:02:14.862Z,1764.00
2018-11-01T07:03:14.838Z,1820.00
2018-11-01T07:04:14.851Z,1876.00
2018-11-01T07:05:14.861Z,1928.00
2018-11-01T07:06:14.894Z,1976.00
2018-11-01T07:07:14.877Z,2028.00
2018-11-01T07:08:14.923Z,2092.00
2018-11-01T07:09:15.070Z,2156.00
2018-11-01T07:10:14.879Z,2212.00
2018-11-01T07:11:14.994Z,2264.00
2018-11-01T07:12:15.282Z,2324.00
2018-11-01T07:13:14.935Z,2368.00
2018-11-01T07:14:14.916Z,2416.00
2018-11-01T07:15:14.906Z,2440.00
2018-11-01T07:16:14.929Z,2436.00
2018-11-01T07:17:15.304Z,2400.00
2018-11-01T07:18:14.965Z,2344.00
2018-11-01T07:19:14.913Z,2272.00
2018-11-01T07:20:14.936Z,2208.00
2018-11-01T07:21:15.237Z,2176.00
2018-11-01T07:22:14.944Z,2152.00
2018-11-01T07:23:14.953Z,2144.00
2018-11-01T07:24:14.993Z,2152.00
2018-11-01T07:25:14.954Z,2176.00
2018-11-01T07:26:15.119Z,2180.00
2018-11-01T07:27:14.975Z,2200.00
2018-11-01T07:28:14.971Z,2228.00
2018-11-01T07:29:15.055Z,2308.00
2018-11-01T07:30:14.969Z,2420.00
2018-11-01T07:31:15.015Z,2544.00
2018-11-01T07:32:14.971Z,2664.00
2018-11-01T07:33:15.057Z,2780.00
2018-11-01T07:34:15.029Z,2856.00
2018-11-01T07:35:14.999Z,2992.00
2018-11-01T07:36:15.100Z,3164.00
2018-11-01T07:37:15.009Z,3384.00
2018-11-01T07:38:15.029Z,3496.00
2018-11-01T07:39:15.009Z,3564.00
2018-11-01T07:40:15.045Z,3552.00
2018-11-01T07:41:15.024Z,3448.00
2018-11-01T07:42:15.054Z,3412.00
2018-11-01T07:43:15.029Z,3452.00
2018-11-01T07:44:15.040Z,3344.00
2018-11-01T07:45:15.090Z,3180.00
2018-11-01T07:46:15.067Z,2956.00
2018-11-01T07:47:15.056Z,2780.00
2018-11-01T07:48:15.141Z,2644.00
2018-11-01T07:49:15.068Z,2532.00
2018-11-01T07:50:15.096Z,2452.00
2018-11-01T07:51:15.106Z,2368.00
2018-11-01T07:52:15.099Z,2344.00
2018-11-01T07:53:15.084Z,2372.00
2018-11-01T07:54:15.108Z,2528.00
2018-11-01T07:55:15.187Z,2672.00
2018-11-01T07:56:15.141Z,2824.00
2018-11-01T07:57:15.205Z,2996.00
2018-11-01T07:58:15.128Z,3152.00
2018-11-01T07:59:15.121Z,3364.00
2018-11-01T08:00:15.134Z,3520.00
2018-11-01T08:01:15.190Z,3632.00
2018-11-01T08:02:15.138Z,3680.00
2018-11-01T08:03:15.173Z,3748.00
2018-11-01T08:04:15.229Z,3840.00
2018-11-01T08:05:15.146Z,3928.00
2018-11-01T08:06:15.182Z,4020.00
2018-11-01T08:07:15.176Z,4096.00
2018-11-01T08:08:15.198Z,4152.00
2018-11-01T08:09:15.215Z,4252.00
2018-11-01T08:10:15.189Z,4248.00
2018-11-01T08:11:15.193Z,4208.00
2018-11-01T08:12:15.268Z,4136.00
2018-11-01T08:13:15.217Z,4080.00
2018-11-01T08:14:15.192Z,4088.00
2018-11-01T08:15:15.199Z,4080.00
2018-11-01T08:16:15.201Z,4060.00
2018-11-01T08:17:15.264Z,4048.00
2018-11-01T08:18:15.260Z,4108.00
2018-11-01T08:19:15.247Z,4260.00
2018-11-01T08:20:15.501Z,4476.00
2018-11-01T08:21:15.448Z,4608.00
2018-11-01T08:22:15.396Z,4616.00
2018-11-01T08:23:15.317Z,4520.00
2018-11-01T08:24:15.283Z,4368.00
2018-11-01T08:25:15.266Z,4176.00
2018-11-01T08:26:15.306Z,3956.00
2018-11-01T08:27:15.388Z,3712.00
2018-11-01T08:28:15.272Z,3548.00
2018-11-01T08:29:15.311Z,3440.00
2018-11-01T08:30:15.627Z,3368.00
2018-11-01T08:31:15.441Z,3376.00
2018-11-01T08:32:15.307Z,3380.00
2018-11-01T08:33:15.300Z,3380.00
2018-11-01T08:34:15.307Z,3412.00
2018-11-01T08:35:15.600Z,3440.00
2018-11-01T08:36:15.333Z,3460.00
2018-11-01T08:37:15.450Z,3512.00
2018-11-01T08:38:15.367Z,3600.00
2018-11-01T08:39:15.355Z,3680.00
2018-11-01T08:40:15.409Z,3784.00
2018-11-01T08:41:15.385Z,3908.00
2018-11-01T08:42:15.360Z,3972.00
2018-11-01T08:43:15.556Z,3988.00
2018-11-01T08:44:15.381Z,3964.00
2018-11-01T08:45:15.694Z,3924.00
2018-11-01T08:46:15.388Z,3896.00
2018-11-01T08:47:15.373Z,3956.00
2018-11-01T08:48:15.716Z,4056.00
2018-11-01T08:49:15.731Z,4160.00
2018-11-01T08:50:15.543Z,4260.00
2018-11-01T08:51:15.441Z,4376.00
2018-11-01T08:52:15.408Z,4512.00
2018-11-01T08:53:15.466Z,4668.00
2018-11-01T08:54:15.417Z,4828.00
2018-11-01T08:55:15.490Z,4976.00
2018-11-01T08:56:15.432Z,5076.00
2018-11-01T08:57:15.433Z,5104.00
2018-11-01T08:58:15.442Z,5124.00
2018-11-01T08:59:15.477Z,5132.00
2018-11-01T09:00:15.459Z,5180.00
2018-11-01T09:01:15.471Z,5232.00
2018-11-01T09:02:15.458Z,5316.00
2018-11-01T09:03:15.473Z,5404.00
2018-11-01T09:04:15.663Z,5492.00
2018-11-01T09:05:15.509Z,5576.00
2018-11-01T09:06:15.519Z,5636.00
2018-11-01T09:07:15.520Z,5660.00
2018-11-01T09:08:15.512Z,5664.00
2018-11-01T09:09:15.542Z,5668.00
2018-11-01T09:10:15.523Z,5656.00
2018-11-01T09:11:15.517Z,5644.00
2018-11-01T09:12:15.528Z,5676.00
2018-11-01T09:13:15.733Z,5784.00
2018-11-01T09:14:15.610Z,5980.00
2018-11-01T09:15:15.723Z,6168.00
2018-11-01T09:16:15.637Z,6244.00
2018-11-01T09:17:15.553Z,6248.00
2018-11-01T09:18:15.562Z,6176.00
2018-11-01T09:19:15.638Z,6164.00
2018-11-01T09:20:15.626Z,6256.00
2018-11-01T09:21:15.577Z,6552.00
2018-11-01T09:22:15.595Z,6828.00
2018-11-01T09:23:15.623Z,7136.00
2018-11-01T09:24:15.608Z,7380.00
2018-11-01T09:25:15.705Z,7496.00
2018-11-01T09:26:15.622Z,7436.00
2018-11-01T09:27:15.669Z,7152.00
2018-11-01T09:28:15.622Z,6840.00
2018-11-01T09:29:15.662Z,6648.00
2018-11-01T09:30:15.722Z,6668.00
2018-11-01T09:31:15.644Z,6704.00
2018-11-01T09:32:15.692Z,6668.00
2018-11-01T09:33:15.668Z,6624.00
2018-11-01T09:34:15.662Z,6616.00
2018-11-01T09:35:15.670Z,6608.00
2018-11-01T09:36:15.724Z,6596.00
2018-11-01T09:37:15.681Z,6600.00
2018-11-01T09:38:15.694Z,6568.00
2018-11-01T09:39:15.716Z,6464.00
2018-11-01T09:40:15.729Z,6316.00
2018-11-01T09:41:15.710Z,6192.00
2018-11-01T09:42:15.716Z,6140.00
2018-11-01T09:43:15.723Z,6088.00
2018-11-01T09:44:15.727Z,6036.00
2018-11-01T09:45:15.774Z,5836.00
2018-11-01T09:46:15.826Z,5536.00
2018-11-01T09:47:16.160Z,5188.00
2018-11-01T09:48:15.780Z,4864.00
2018-11-01T09:49:15.770Z,4572.00
2018-11-01T09:50:15.770Z,4312.00
2018-11-01T09:51:15.783Z,4132.00
2018-11-01T09:52:15.792Z,3960.00
2018-11-01T09:53:15.807Z,3792.00
2018-11-01T09:54:15.799Z,3620.00
2018-11-01T09:55:15.802Z,3420.00
2018-11-01T09:56:15.885Z,3312.00
2018-11-01T09:57:15.959Z,3216.00
2018-11-01T09:58:15.860Z,3164.00
2018-11-01T09:59:15.843Z,3148.00
2018-11-01T10:00:15.854Z,3156.00
2018-11-01T10:01:16.113Z,3184.00
2018-11-01T10:02:15.875Z,3236.00
2018-11-01T10:03:15.996Z,3300.00
2018-11-01T10:04:16.026Z,3408.00
2018-11-01T10:05:15.870Z,3516.00
2018-11-01T10:06:15.880Z,3644.00
2018-11-01T10:07:15.883Z,3812.00
2018-11-01T10:08:15.923Z,3956.00
2018-11-01T10:09:15.964Z,4104.00
2018-11-01T10:10:15.916Z,4300.00
2018-11-01T10:11:15.918Z,4500.00
2018-11-01T10:12:15.927Z,4644.00
2018-11-01T10:13:15.936Z,4728.00
2018-11-01T10:14:15.984Z,4804.00
2018-11-01T10:15:16.142Z,4884.00
2018-11-01T10:16:16.177Z,4944.00
2018-11-01T10:17:16.460Z,4984.00
2018-11-01T10:18:16.386Z,4996.00
2018-11-01T10:19:16.018Z,5000.00
2018-11-01T10:20:16.005Z,5044.00
2018-11-01T10:21:16.048Z,5048.00
2018-11-01T10:22:16.053Z,5044.00
2018-11-01T10:23:16.012Z,5144.00
2018-11-01T10:24:16.022Z,5320.00
2018-11-01T10:25:16.099Z,5460.00
2018-11-01T10:26:16.045Z,5504.00
2018-11-01T10:27:19.509Z,5544.00
2018-11-01T10:28:16.039Z,5592.00
2018-11-01T10:29:16.056Z,5560.00
2018-11-01T10:30:16.048Z,5448.00
2018-11-01T10:31:16.094Z,5372.00
2018-11-01T10:32:16.075Z,5368.00
2018-11-01T10:33:16.097Z,5420.00
2018-11-01T10:34:16.091Z,5432.00
2018-11-01T10:35:16.125Z,5524.00
2018-11-01T10:36:16.111Z,5588.00
2018-11-01T10:37:16.094Z,5692.00
2018-11-01T10:38:16.161Z,5820.00
2018-11-01T10:39:16.109Z,6068.00
2018-11-01T10:40:16.109Z,6424.00
2018-11-01T10:41:16.169Z,6772.00
2018-11-01T10:42:16.139Z,7164.00
2018-11-01T10:43:16.137Z,7408.00
2018-11-01T10:44:16.185Z,7528.00
2018-11-01T10:45:16.280Z,7444.00
2018-11-01T10:46:16.176Z,7240.00
2018-11-01T10:47:16.161Z,7068.00
2018-11-01T10:48:16.173Z,6828.00
2018-11-01T10:49:16.244Z,6600.00
2018-11-01T10:50:16.195Z,6328.00
2018-11-01T10:51:16.217Z,6044.00
2018-11-01T10:52:16.213Z,5760.00
2018-11-01T10:53:16.216Z,5340.00
2018-11-01T10:54:16.289Z,5072.00
2018-11-01T10:55:16.261Z,4896.00
2018-11-01T10:56:16.223Z,4696.00
2018-11-01T10:57:16.240Z,4456.00
2018-11-01T10:58:16.243Z,4288.00
2018-11-01T10:59:16.241Z,4116.00
2018-11-01T11:00:16.414Z,4008.00
2018-11-01T11:01:16.457Z,3912.00
2018-11-01T11:02:16.289Z,3916.00
2018-11-01T11:03:16.314Z,4060.00
2018-11-01T11:04:16.279Z,4184.00
2018-11-01T11:05:16.310Z,4244.00
2018-11-01T11:06:16.320Z,4236.00
2018-11-01T11:07:16.348Z,4308.00
2018-11-01T11:08:16.314Z,4428.00
2018-11-01T11:09:16.324Z,4592.00
2018-11-01T11:10:16.643Z,4828.00
2018-11-01T11:11:16.369Z,5020.00
2018-11-01T11:12:16.377Z,5236.00
2018-11-01T11:13:16.340Z,5456.00
2018-11-01T11:14:16.400Z,5736.00
2018-11-01T11:15:16.412Z,6040.00
2018-11-01T11:16:16.365Z,6184.00
2018-11-01T11:17:16.430Z,6316.00
2018-11-01T11:18:16.420Z,6244.00
2018-11-01T11:19:16.395Z,6000.00
2018-11-01T11:20:16.480Z,5788.00
2018-11-01T11:21:16.706Z,5688.00
2018-11-01T11:22:16.409Z,5656.00
2018-11-01T11:23:16.456Z,5640.00
2018-11-01T11:24:16.502Z,5616.00
2018-11-01T11:25:16.555Z,5612.00
2018-11-01T11:26:16.440Z,5580.00
2018-11-01T11:27:16.516Z,5580.00
2018-11-01T11:28:16.473Z,5588.00
2018-11-01T11:29:16.476Z,5596.00
2018-11-01T11:30:16.649Z,5632.00
2018-11-01T11:31:16.488Z,5664.00
2018-11-01T11:32:16.492Z,5700.00
2018-11-01T11:33:16.512Z,5764.00
2018-11-01T11:34:16.509Z,5896.00
2018-11-01T11:35:16.557Z,6028.00
2018-11-01T11:36:16.536Z,6132.00
2018-11-01T11:37:16.584Z,6200.00
2018-11-01T11:38:16.542Z,6224.00
2018-11-01T11:39:16.631Z,6176.00
2018-11-01T11:40:16.625Z,6076.00
2018-11-01T11:41:16.556Z,5976.00
2018-11-01T11:42:16.557Z,5860.00
2018-11-01T11:43:16.576Z,5736.00
2018-11-01T11:44:16.631Z,5576.00
2018-11-01T11:45:16.583Z,5428.00
2018-11-01T11:46:16.631Z,5296.00
2018-11-01T11:47:16.617Z,5144.00
2018-11-01T11:48:16.616Z,5004.00
2018-11-01T11:49:16.623Z,4900.00
2018-11-01T11:50:16.678Z,4860.00
2018-11-01T11:51:16.680Z,4852.00
2018-11-01T11:52:16.659Z,4848.00
2018-11-01T11:53:16.683Z,4836.00
2018-11-01T11:54:16.673Z,4824.00
2018-11-01T11:55:16.666Z,4816.00
2018-11-01T11:56:16.670Z,4816.00
2018-11-01T11:57:16.753Z,4840.00
2018-11-01T11:58:16.784Z,4872.00
2018-11-01T11:59:16.689Z,4868.00
2018-11-01T12:00:16.704Z,4824.00
2018-11-01T12:01:16.750Z,4736.00
2018-11-01T12:02:16.824Z,4616.00
2018-11-01T12:03:16.736Z,4508.00
2018-11-01T12:04:16.736Z,4432.00
2018-11-01T12:05:16.782Z,4384.00
2018-11-01T12:06:16.975Z,4388.00
2018-11-01T12:07:16.755Z,4392.00
2018-11-01T12:08:16.783Z,4368.00
2018-11-01T12:09:16.845Z,4324.00
2018-11-01T12:10:16.797Z,4336.00
2018-11-01T12:11:16.834Z,4380.00
2018-11-01T12:12:16.808Z,4444.00
2018-11-01T12:13:16.809Z,4508.00
2018-11-01T12:14:16.893Z,4560.00
2018-11-01T12:15:16.921Z,4628.00
2018-11-01T12:16:16.829Z,4668.00
2018-11-01T12:17:16.836Z,4672.00
2018-11-01T12:18:16.853Z,4632.00
2018-11-01T12:19:16.862Z,4572.00
2018-11-01T12:20:16.905Z,4504.00
2018-11-01T12:21:16.967Z,4444.00
2018-11-01T12:22:17.018Z,4388.00
2018-11-01T12:23:16.885Z,4344.00
2018-11-01T12:24:16.993Z,4308.00
2018-11-01T12:25:16.945Z,4268.00
2018-11-01T12:26:16.913Z,4244.00
2018-11-01T12:27:16.921Z,4228.00
2018-11-01T12:28:17.011Z,4216.00
2018-11-01T12:29:16.938Z,4192.00
2018-11-01T12:30:16.987Z,4148.00
2018-11-01T12:31:16.950Z,4096.00
2018-11-01T12:32:16.981Z,4020.00
2018-11-01T12:33:16.963Z,3936.00
2018-11-01T12:34:17.008Z,3876.00
2018-11-01T12:35:17.013Z,3848.00
2018-11-01T12:36:17.000Z,3828.00
2018-11-01T12:37:17.044Z,3788.00
2018-11-01T12:38:17.037Z,3720.00
2018-11-01T12:39:17.011Z,3652.00
2018-11-01T12:40:17.028Z,3580.00
2018-11-01T12:41:17.033Z,3488.00
2018-11-01T12:42:17.042Z,3392.00